createdAt,value
2019-01-26T00:00:35.433Z,933.88
2019-01-26T00:01:36.398Z,933.95
2019-01-26T00:02:37.208Z,933.91
2019-01-26T00:03:38.167Z,933.92
2019-01-26T00:04:38.852Z,933.9
2019-01-26T00:05:39.255Z,933.96
2019-01-26T00:06:39.946Z,933.95
2019-01-26T00:07:40.627Z,933.88
2019-01-26T00:08:41.752Z,933.9
2019-01-26T00:09:43.070Z,933.9
2019-01-26T00:10:43.476Z,933.97
2019-01-26T00:11:43.889Z,933.98
2019-01-26T00:12:44.442Z,933.98
2019-01-26T00:13:45.568Z,933.92
2019-01-26T00:14:46.693Z,933.84
2019-01-26T00:15:47.199Z,933.81
2019-01-26T00:16:47.888Z,933.85
2019-01-26T00:17:48.880Z,933.83
2019-01-26T00:18:49.286Z,933.85
2019-01-26T00:19:50.252Z,933.87
2019-01-26T00:20:50.934Z,933.87
2019-01-26T00:21:52.063Z,933.88
2019-01-26T00:22:52.872Z,933.87
2019-01-26T00:23:53.277Z,933.87
2019-01-26T00:24:53.681Z,933.88
2019-01-26T00:25:54.814Z,933.83
2019-01-26T00:26:55.774Z,933.78
2019-01-26T00:27:56.181Z,933.84
2019-01-26T00:28:57.313Z,933.9
2019-01-26T00:29:57.717Z,933.94
2019-01-26T00:30:58.402Z,933.9
2019-01-26T00:31:58.808Z,933.88
2019-01-26T00:32:59.342Z,933.89
2019-01-26T00:33:59.748Z,933.9
2019-01-26T00:35:00.452Z,933.89
2019-01-26T00:36:00.857Z,933.84
2019-01-26T00:37:01.541Z,933.81
2019-01-26T00:38:02.702Z,933.85
2019-01-26T00:39:04.101Z,933.91
2019-01-26T00:40:05.230Z,933.85
2019-01-26T00:41:05.647Z,933.88
2019-01-26T00:42:06.775Z,933.88
2019-01-26T00:43:08.164Z,933.88
2019-01-26T00:44:09.291Z,933.88
2019-01-26T00:45:09.707Z,933.87
2019-01-26T00:46:10.665Z,933.91
2019-01-26T00:47:11.903Z,933.89
2019-01-26T00:48:13.029Z,933.86
2019-01-26T00:49:13.267Z,933.88
2019-01-26T00:50:14.673Z,933.92
2019-01-26T00:51:17.833Z,934.02
2019-01-26T00:52:18.961Z,933.98
2019-01-26T00:53:20.049Z,934
2019-01-26T00:54:21.456Z,933.98
2019-01-26T00:55:22.142Z,933.98
2019-01-26T00:56:22.857Z,933.95
2019-01-26T00:57:23.289Z,933.91
2019-01-26T00:58:24.545Z,933.94
2019-01-26T00:59:25.231Z,933.96
2019-01-26T01:00:26.341Z,934.02
2019-01-26T01:01:26.748Z,934
2019-01-26T01:02:27.153Z,933.98
2019-01-26T01:03:27.454Z,934.03
2019-01-26T01:04:28.776Z,934.01
2019-01-26T01:05:29.739Z,933.98
2019-01-26T01:06:30.458Z,933.96
2019-01-26T01:07:30.976Z,933.9
2019-01-26T01:08:31.936Z,933.93
2019-01-26T01:09:32.625Z,933.97
2019-01-26T01:10:32.869Z,933.85
2019-01-26T01:11:33.106Z,933.85
2019-01-26T01:12:33.513Z,933.87
2019-01-26T01:13:34.047Z,933.82
2019-01-26T01:14:34.730Z,933.78
2019-01-26T01:15:35.414Z,933.79
2019-01-26T01:16:36.433Z,933.78
2019-01-26T01:17:37.564Z,933.73
2019-01-26T01:18:38.526Z,933.72
2019-01-26T01:19:39.490Z,933.71
2019-01-26T01:20:40.201Z,933.72
2019-01-26T01:21:41.209Z,933.72
2019-01-26T01:22:42.573Z,933.74
2019-01-26T01:23:42.993Z,933.68
2019-01-26T01:24:44.392Z,933.63
2019-01-26T01:25:45.800Z,933.63
2019-01-26T01:26:46.516Z,933.61
2019-01-26T01:27:46.926Z,933.61
2019-01-26T01:28:47.329Z,933.67
2019-01-26T01:29:48.011Z,933.57
2019-01-26T01:30:48.693Z,933.52
2019-01-26T01:31:49.380Z,933.57
2019-01-26T01:32:49.782Z,933.58
2019-01-26T01:33:50.592Z,933.58
2019-01-26T01:34:51.400Z,933.59
2019-01-26T01:35:51.826Z,933.6
2019-01-26T01:36:52.954Z,933.6
2019-01-26T01:37:53.640Z,933.61
2019-01-26T01:38:54.763Z,933.55
2019-01-26T01:39:55.170Z,933.53
2019-01-26T01:40:55.857Z,933.52
2019-01-26T01:41:56.981Z,933.53
2019-01-26T01:42:57.384Z,933.53
2019-01-26T01:43:57.758Z,933.5
2019-01-26T01:44:58.884Z,933.48
2019-01-26T01:45:59.312Z,933.44
2019-01-26T01:46:59.550Z,933.43
2019-01-26T01:48:00.789Z,933.45
2019-01-26T01:49:01.193Z,933.43
2019-01-26T01:50:02.166Z,933.43
2019-01-26T01:51:03.126Z,933.44
2019-01-26T01:52:03.807Z,933.44
2019-01-26T01:53:04.219Z,933.39
2019-01-26T01:54:05.036Z,933.28
2019-01-26T01:55:06.161Z,933.27
2019-01-26T01:56:07.122Z,933.32
2019-01-26T01:57:07.531Z,933.28
2019-01-26T01:58:08.214Z,933.25
2019-01-26T01:59:08.621Z,933.26
2019-01-26T02:00:09.577Z,933.21
2019-01-26T02:01:09.992Z,933.17
2019-01-26T02:02:10.951Z,933.18
2019-01-26T02:03:11.357Z,933.19
2019-01-26T02:04:12.172Z,933.16
2019-01-26T02:05:12.852Z,933.18
2019-01-26T02:06:13.834Z,933.19
2019-01-26T02:07:14.961Z,933.19
2019-01-26T02:08:16.381Z,933.12
2019-01-26T02:09:17.063Z,933.1
2019-01-26T02:10:17.755Z,933.13
2019-01-26T02:11:18.429Z,933.08
2019-01-26T02:12:19.559Z,933.03
2019-01-26T02:13:20.531Z,933.09
2019-01-26T02:14:21.342Z,933.05
2019-01-26T02:15:22.021Z,933.05
2019-01-26T02:16:22.426Z,933.06
2019-01-26T02:17:22.831Z,933.09
2019-01-26T02:18:23.235Z,933.12
2019-01-26T02:19:23.914Z,933.15
2019-01-26T02:20:24.329Z,933.05
2019-01-26T02:21:25.288Z,933.05
2019-01-26T02:22:26.251Z,933.06
2019-01-26T02:23:26.944Z,933.06
2019-01-26T02:24:27.593Z,933.06
2019-01-26T02:25:28.722Z,933.04
2019-01-26T02:26:29.129Z,933.03
2019-01-26T02:27:30.570Z,932.98
2019-01-26T02:28:30.973Z,932.92
2019-01-26T02:29:31.658Z,932.91
2019-01-26T02:30:32.782Z,932.84
2019-01-26T02:31:34.044Z,932.8
2019-01-26T02:32:35.004Z,932.77
2019-01-26T02:33:35.971Z,932.76
2019-01-26T02:34:36.621Z,932.78
2019-01-26T02:35:37.035Z,932.79
2019-01-26T02:36:37.811Z,932.82
2019-01-26T02:37:38.968Z,932.77
2019-01-26T02:38:39.491Z,932.74
2019-01-26T02:39:40.454Z,932.79
2019-01-26T02:40:41.602Z,932.8
2019-01-26T02:41:41.854Z,932.72
2019-01-26T02:42:43.000Z,932.76
2019-01-26T02:43:43.401Z,932.72
2019-01-26T02:44:44.353Z,932.69
2019-01-26T02:45:44.763Z,932.7
2019-01-26T02:46:45.794Z,932.64
2019-01-26T02:47:46.756Z,932.67
2019-01-26T02:48:47.715Z,932.72
2019-01-26T02:49:47.951Z,932.72
2019-01-26T02:50:48.476Z,932.76
2019-01-26T02:51:49.166Z,932.72
2019-01-26T02:52:49.432Z,932.75
2019-01-26T02:53:50.572Z,932.69
2019-01-26T02:54:51.663Z,932.7
2019-01-26T02:55:51.919Z,932.72
2019-01-26T02:56:53.060Z,932.72
2019-01-26T02:57:54.021Z,932.67
2019-01-26T02:58:54.472Z,932.65
2019-01-26T02:59:54.879Z,932.61
2019-01-26T03:00:55.411Z,932.61
2019-01-26T03:01:56.095Z,932.59
2019-01-26T03:02:56.786Z,932.59
2019-01-26T03:03:57.765Z,932.63
2019-01-26T03:04:58.431Z,932.58
2019-01-26T03:05:59.504Z,932.51
2019-01-26T03:07:00.187Z,932.5
2019-01-26T03:08:00.870Z,932.42
2019-01-26T03:09:01.124Z,932.34
2019-01-26T03:10:01.368Z,932.39
2019-01-26T03:11:01.612Z,932.39
2019-01-26T03:12:02.021Z,932.37
2019-01-26T03:13:02.999Z,932.36
2019-01-26T03:14:03.256Z,932.34
2019-01-26T03:15:03.472Z,932.33
2019-01-26T03:16:04.172Z,932.32
2019-01-26T03:17:06.630Z,932.26
2019-01-26T03:18:07.057Z,932.29
2019-01-26T03:19:07.475Z,932.29
2019-01-26T03:20:07.899Z,932.3
2019-01-26T03:21:08.303Z,932.25
2019-01-26T03:22:08.722Z,932.3
2019-01-26T03:23:09.125Z,932.3
2019-01-26T03:24:10.111Z,932.33
2019-01-26T03:25:10.525Z,932.34
2019-01-26T03:26:11.515Z,932.3
2019-01-26T03:27:12.199Z,932.22
2019-01-26T03:28:12.442Z,932.24
2019-01-26T03:29:13.128Z,932.22
2019-01-26T03:30:13.820Z,932.24
2019-01-26T03:31:14.638Z,932.24
2019-01-26T03:32:15.786Z,932.23
2019-01-26T03:33:16.343Z,932.23
2019-01-26T03:34:17.454Z,932.25
2019-01-26T03:35:18.378Z,932.27
2019-01-26T03:36:19.640Z,932.28
2019-01-26T03:37:20.047Z,932.25
2019-01-26T03:38:20.733Z,932.27
2019-01-26T03:39:21.139Z,932.16
2019-01-26T03:40:22.106Z,932.22
2019-01-26T03:41:22.620Z,932.24
2019-01-26T03:42:23.585Z,932.23
2019-01-26T03:43:24.825Z,932.22
2019-01-26T03:44:25.517Z,932.27
2019-01-26T03:45:26.668Z,932.25
2019-01-26T03:46:27.352Z,932.24
2019-01-26T03:47:28.148Z,932.29
2019-01-26T03:48:28.559Z,932.22
2019-01-26T03:49:29.654Z,932.24
2019-01-26T03:50:30.616Z,932.26
2019-01-26T03:51:31.580Z,932.26
2019-01-26T03:52:32.260Z,932.29
2019-01-26T03:53:32.944Z,932.19
2019-01-26T03:54:33.909Z,932.2
2019-01-26T03:55:35.027Z,932.13
2019-01-26T03:56:35.759Z,932.16
2019-01-26T03:57:36.724Z,932.14
2019-01-26T03:58:37.420Z,932.16
2019-01-26T03:59:38.104Z,932.16
2019-01-26T04:00:38.797Z,932.13
2019-01-26T04:01:39.762Z,932.06
2019-01-26T04:02:40.725Z,932.02
2019-01-26T04:03:41.414Z,932.08
2019-01-26T04:04:42.120Z,932.04
2019-01-26T04:05:43.264Z,932.01
2019-01-26T04:06:43.949Z,932.1
2019-01-26T04:07:44.628Z,932.05
2019-01-26T04:08:45.605Z,932.07
2019-01-26T04:09:46.732Z,932.09
2019-01-26T04:10:46.983Z,932.03
2019-01-26T04:11:47.946Z,932.09
2019-01-26T04:12:48.415Z,932.09
2019-01-26T04:13:49.381Z,932.17
2019-01-26T04:14:50.070Z,932.1
2019-01-26T04:15:50.902Z,932.12
2019-01-26T04:16:51.589Z,932.07
2019-01-26T04:17:52.280Z,932.05
2019-01-26T04:18:53.410Z,932.08
2019-01-26T04:19:54.118Z,932.06
2019-01-26T04:20:54.528Z,932.08
2019-01-26T04:21:55.209Z,932.03
2019-01-26T04:22:55.897Z,932
2019-01-26T04:23:56.719Z,932
2019-01-26T04:24:57.134Z,931.95
2019-01-26T04:25:57.793Z,931.88
2019-01-26T04:26:58.477Z,931.91
2019-01-26T04:27:58.738Z,931.89
2019-01-26T04:28:59.714Z,931.94
2019-01-26T04:29:59.951Z,931.94
2019-01-26T04:31:00.215Z,931.98
2019-01-26T04:32:01.177Z,932.01
2019-01-26T04:33:02.418Z,932.09
2019-01-26T04:34:03.395Z,932.06
2019-01-26T04:35:03.919Z,932.09
2019-01-26T04:36:06.612Z,932.12
2019-01-26T04:37:06.876Z,932.11
2019-01-26T04:38:08.291Z,932.06
2019-01-26T04:39:09.264Z,932.09
2019-01-26T04:40:10.233Z,932.07
2019-01-26T04:41:10.650Z,932.09
2019-01-26T04:42:11.631Z,932.1
2019-01-26T04:43:11.875Z,932.08
2019-01-26T04:44:12.560Z,932.13
2019-01-26T04:45:12.807Z,932.13
2019-01-26T04:46:13.361Z,932.13
2019-01-26T04:47:14.042Z,932.14
2019-01-26T04:48:14.729Z,932.1
2019-01-26T04:49:15.704Z,932.08
2019-01-26T04:50:16.399Z,932.08
2019-01-26T04:51:17.087Z,932.07
2019-01-26T04:52:18.497Z,932.08
2019-01-26T04:53:19.465Z,932.04
2019-01-26T04:54:20.157Z,932.12
2019-01-26T04:55:20.906Z,932.03
2019-01-26T04:56:21.751Z,932.09
2019-01-26T04:57:22.718Z,932.09
2019-01-26T04:58:23.868Z,932.06
2019-01-26T04:59:24.594Z,932.06
2019-01-26T05:00:25.842Z,932.1
2019-01-26T05:01:26.533Z,932.11
2019-01-26T05:02:27.671Z,932.11
2019-01-26T05:03:28.683Z,932.07
2019-01-26T05:04:29.369Z,932.05
2019-01-26T05:05:30.646Z,932
2019-01-26T05:06:31.476Z,932.04
2019-01-26T05:07:32.603Z,932.05
2019-01-26T05:08:32.852Z,932.09
2019-01-26T05:09:33.853Z,932.02
2019-01-26T05:10:34.540Z,931.99
2019-01-26T05:11:35.508Z,931.98
2019-01-26T05:12:35.748Z,932.04
2019-01-26T05:13:36.561Z,932.01
2019-01-26T05:14:37.258Z,932.06
2019-01-26T05:15:38.390Z,932.03
2019-01-26T05:16:39.490Z,932.02
2019-01-26T05:17:40.614Z,932.05
2019-01-26T05:18:41.298Z,932.09
2019-01-26T05:19:41.825Z,932.08
2019-01-26T05:20:42.953Z,932.03
2019-01-26T05:21:43.651Z,932.09
2019-01-26T05:22:44.058Z,932.02
2019-01-26T05:23:45.022Z,932.01
2019-01-26T05:24:45.989Z,932.03
2019-01-26T05:25:46.953Z,931.98
2019-01-26T05:26:47.891Z,931.9
2019-01-26T05:27:48.870Z,931.93
2019-01-26T05:28:49.396Z,931.88
2019-01-26T05:29:49.805Z,931.97
2019-01-26T05:30:50.490Z,931.95
2019-01-26T05:31:51.447Z,931.92
2019-01-26T05:32:52.136Z,931.96
2019-01-26T05:33:53.372Z,931.9
2019-01-26T05:34:54.621Z,931.83
2019-01-26T05:35:55.021Z,931.9
2019-01-26T05:36:55.453Z,931.79
2019-01-26T05:37:56.133Z,931.84
2019-01-26T05:38:56.375Z,931.83
2019-01-26T05:39:57.055Z,931.86
2019-01-26T05:40:58.182Z,931.8
2019-01-26T05:41:59.164Z,931.78
2019-01-26T05:42:59.401Z,931.85
2019-01-26T05:43:59.812Z,931.82
2019-01-26T05:45:00.092Z,931.83
2019-01-26T05:46:01.216Z,931.84
2019-01-26T05:47:02.036Z,931.79
2019-01-26T05:48:02.724Z,931.83
2019-01-26T05:49:03.410Z,931.88
2019-01-26T05:50:03.826Z,931.8
2019-01-26T05:51:04.514Z,931.83
2019-01-26T05:52:05.520Z,931.83
2019-01-26T05:53:06.774Z,931.71
2019-01-26T05:54:07.186Z,931.85
2019-01-26T05:55:07.632Z,931.8
2019-01-26T05:56:08.317Z,931.77
2019-01-26T05:57:09.250Z,931.75
2019-01-26T05:58:10.218Z,931.79
2019-01-26T05:59:10.473Z,931.68
2019-01-26T06:00:11.437Z,931.72
2019-01-26T06:01:12.118Z,931.7
2019-01-26T06:02:13.242Z,931.72
2019-01-26T06:03:13.927Z,931.69
2019-01-26T06:04:14.929Z,931.69
2019-01-26T06:05:15.613Z,931.77
2019-01-26T06:06:16.751Z,931.8
2019-01-26T06:07:17.411Z,931.75
2019-01-26T06:08:17.812Z,931.77
2019-01-26T06:09:18.228Z,931.79
2019-01-26T06:10:19.349Z,931.82
2019-01-26T06:11:19.872Z,931.74
2019-01-26T06:12:20.296Z,931.82
2019-01-26T06:13:20.827Z,931.9
2019-01-26T06:14:21.514Z,931.86
2019-01-26T06:15:22.202Z,931.76
2019-01-26T06:16:23.167Z,931.79
2019-01-26T06:17:24.253Z,931.78
2019-01-26T06:18:24.942Z,931.81
2019-01-26T06:19:25.627Z,931.87
2019-01-26T06:20:26.310Z,931.83
2019-01-26T06:21:27.478Z,931.82
2019-01-26T06:22:28.163Z,931.8
2019-01-26T06:23:28.573Z,931.85
2019-01-26T06:24:28.975Z,931.86
2019-01-26T06:25:29.383Z,931.97
2019-01-26T06:26:29.704Z,931.97
2019-01-26T06:27:30.066Z,931.85
2019-01-26T06:28:30.472Z,931.89
2019-01-26T06:29:31.599Z,931.77
2019-01-26T06:30:32.762Z,931.85
2019-01-26T06:31:33.444Z,931.81
2019-01-26T06:32:33.873Z,931.8
2019-01-26T06:33:34.854Z,931.85
2019-01-26T06:34:35.819Z,931.87
2019-01-26T06:35:36.109Z,931.81
2019-01-26T06:36:36.355Z,931.78
2019-01-26T06:37:36.551Z,931.78
2019-01-26T06:38:37.514Z,931.79
2019-01-26T06:39:38.493Z,931.78
2019-01-26T06:40:39.457Z,931.79
2019-01-26T06:41:40.616Z,931.83
2019-01-26T06:42:41.371Z,931.89
2019-01-26T06:43:42.335Z,931.82
2019-01-26T06:44:42.746Z,931.81
2019-01-26T06:45:43.155Z,931.91
2019-01-26T06:46:43.562Z,931.94
2019-01-26T06:47:44.647Z,931.96
2019-01-26T06:48:45.055Z,931.89
2019-01-26T06:49:45.460Z,932
2019-01-26T06:50:45.867Z,931.88
2019-01-26T06:51:46.271Z,931.92
2019-01-26T06:52:46.684Z,931.96
2019-01-26T06:53:47.660Z,931.9
2019-01-26T06:54:48.344Z,931.89
2019-01-26T06:55:49.310Z,931.87
2019-01-26T06:56:50.287Z,931.87
2019-01-26T06:57:51.013Z,932.01
2019-01-26T06:58:51.706Z,931.92
2019-01-26T06:59:52.225Z,931.96
2019-01-26T07:00:52.634Z,931.96
2019-01-26T07:01:53.319Z,931.98
2019-01-26T07:02:53.729Z,931.91
2019-01-26T07:03:54.696Z,931.92
2019-01-26T07:04:55.101Z,931.98
2019-01-26T07:05:55.784Z,932.07
2019-01-26T07:06:56.472Z,931.97
2019-01-26T07:07:57.160Z,932
2019-01-26T07:08:57.846Z,932.02
2019-01-26T07:09:58.255Z,932
2019-01-26T07:10:58.967Z,932.02
2019-01-26T07:11:59.253Z,932
2019-01-26T07:12:59.940Z,932.01
2019-01-26T07:14:00.630Z,932.01
2019-01-26T07:15:02.037Z,932.01
2019-01-26T07:16:02.728Z,932.03
2019-01-26T07:17:03.416Z,931.96
2019-01-26T07:18:09.933Z,931.99
2019-01-26T07:18:15.978Z,932.01
2019-01-26T07:19:17.096Z,932
2019-01-26T07:20:18.257Z,932.01
2019-01-26T07:21:19.388Z,932.01
2019-01-26T07:22:19.835Z,931.99
2019-01-26T07:23:20.241Z,932.05
2019-01-26T07:24:21.209Z,932.09
2019-01-26T07:25:21.624Z,932
2019-01-26T07:26:22.588Z,932.02
2019-01-26T07:27:23.278Z,932.09
2019-01-26T07:28:24.405Z,932.09
2019-01-26T07:29:25.516Z,932.09
2019-01-26T07:30:26.479Z,932.12
2019-01-26T07:31:27.169Z,932.13
2019-01-26T07:32:27.857Z,932.13
2019-01-26T07:33:28.832Z,932.13
2019-01-26T07:34:29.520Z,932.14
2019-01-26T07:35:30.652Z,932.21
2019-01-26T07:36:31.784Z,932.23
2019-01-26T07:37:33.019Z,932.19
2019-01-26T07:38:33.435Z,932.19
2019-01-26T07:39:34.552Z,932.21
2019-01-26T07:40:35.798Z,932.29
2019-01-26T07:41:36.206Z,932.29
2019-01-26T07:42:36.895Z,932.23
2019-01-26T07:43:37.429Z,932.25
2019-01-26T07:44:38.571Z,932.29
2019-01-26T07:45:39.286Z,932.21
2019-01-26T07:46:39.970Z,932.23
2019-01-26T07:47:40.657Z,932.22
2019-01-26T07:48:41.346Z,932.23
2019-01-26T07:49:41.907Z,932.23
2019-01-26T07:50:42.595Z,932.12
2019-01-26T07:51:43.289Z,932.21
2019-01-26T07:52:44.251Z,932.2
2019-01-26T07:53:44.942Z,932.18
2019-01-26T07:54:45.382Z,932.15
2019-01-26T07:55:45.791Z,932.2
2019-01-26T07:56:46.936Z,932.19
2019-01-26T07:57:47.903Z,932.22
2019-01-26T07:58:49.033Z,932.15
2019-01-26T07:59:50.136Z,932.15
2019-01-26T08:00:51.108Z,932.16
2019-01-26T08:01:51.815Z,932.2
2019-01-26T08:02:52.830Z,932.19
2019-01-26T08:03:53.515Z,932.1
2019-01-26T08:04:54.645Z,932.1
2019-01-26T08:05:55.814Z,932.16
2019-01-26T08:06:56.505Z,932.18
2019-01-26T08:07:57.473Z,932.07
2019-01-26T08:08:58.618Z,932.09
2019-01-26T08:09:59.443Z,932.21
2019-01-26T08:11:00.307Z,932.2
2019-01-26T08:12:00.995Z,932.13
2019-01-26T08:13:01.238Z,932.13
2019-01-26T08:14:01.481Z,932.14
2019-01-26T08:15:02.169Z,932.17
2019-01-26T08:16:03.303Z,932.22
2019-01-26T08:17:03.996Z,932.21
2019-01-26T08:18:04.685Z,932.18
2019-01-26T08:19:05.375Z,932.19
2019-01-26T08:20:06.211Z,932.17
2019-01-26T08:21:07.215Z,932.19
2019-01-26T08:22:08.353Z,932.23
2019-01-26T08:23:09.488Z,932.27
2019-01-26T08:24:09.896Z,932.26
2019-01-26T08:25:10.892Z,932.22
2019-01-26T08:26:11.583Z,932.29
2019-01-26T08:27:11.999Z,932.26
2019-01-26T08:28:12.968Z,932.24
2019-01-26T08:29:13.658Z,932.24
2019-01-26T08:30:13.918Z,932.22
2019-01-26T08:31:15.051Z,932.29
2019-01-26T08:32:16.184Z,932.34
2019-01-26T08:33:16.604Z,932.31
2019-01-26T08:34:17.737Z,932.34
2019-01-26T08:35:18.875Z,932.32
2019-01-26T08:36:19.284Z,932.36
2019-01-26T08:37:19.972Z,932.28
2019-01-26T08:38:20.961Z,932.28
2019-01-26T08:39:21.920Z,932.35
2019-01-26T08:40:22.778Z,932.36
2019-01-26T08:41:23.192Z,932.32
2019-01-26T08:42:23.602Z,932.27
2019-01-26T08:43:24.570Z,932.32
2019-01-26T08:44:25.536Z,932.37
2019-01-26T08:45:25.945Z,932.35
2019-01-26T08:46:26.633Z,932.36
2019-01-26T08:47:27.324Z,932.39
2019-01-26T08:48:31.666Z,932.32
2019-01-26T08:49:32.812Z,932.27
2019-01-26T08:50:33.931Z,932.18
2019-01-26T08:51:34.351Z,932.28
2019-01-26T08:52:34.872Z,932.32
2019-01-26T08:53:36.009Z,932.29
2019-01-26T08:54:36.422Z,932.32
2019-01-26T08:55:36.834Z,932.29
2019-01-26T08:56:38.243Z,932.35
2019-01-26T08:57:39.381Z,932.35
2019-01-26T08:58:40.067Z,932.27
2019-01-26T08:59:40.479Z,932.37
2019-01-26T09:00:40.899Z,932.34
2019-01-26T09:01:41.593Z,932.33
2019-01-26T09:02:42.840Z,932.32
2019-01-26T09:03:43.256Z,932.37
2019-01-26T09:04:43.666Z,932.28
2019-01-26T09:05:44.356Z,932.28
2019-01-26T09:06:44.773Z,932.34
2019-01-26T09:07:45.744Z,932.33
2019-01-26T09:08:45.986Z,932.3
2019-01-26T09:09:46.398Z,932.33
2019-01-26T09:10:46.658Z,932.31
2019-01-26T09:11:47.345Z,932.3
2019-01-26T09:12:47.763Z,932.3
2019-01-26T09:13:48.166Z,932.29
2019-01-26T09:14:48.584Z,932.32
2019-01-26T09:15:49.277Z,932.29
2019-01-26T09:16:49.715Z,932.3
2019-01-26T09:17:50.850Z,932.33
2019-01-26T09:18:51.263Z,932.36
2019-01-26T09:19:52.229Z,932.34
2019-01-26T09:20:53.334Z,932.33
2019-01-26T09:21:54.329Z,932.35
2019-01-26T09:22:55.302Z,932.3
2019-01-26T09:23:56.004Z,932.29
2019-01-26T09:24:56.701Z,932.29
2019-01-26T09:25:57.839Z,932.33
2019-01-26T09:26:58.979Z,932.35
2019-01-26T09:27:59.666Z,932.34
2019-01-26T09:29:00.633Z,932.35
2019-01-26T09:30:03.310Z,932.39
2019-01-26T09:30:13.841Z,932.39
2019-01-26T09:31:14.656Z,932.39
2019-01-26T09:32:15.790Z,932.34
2019-01-26T09:33:15.966Z,932.36
2019-01-26T09:34:16.381Z,932.39
2019-01-26T09:35:17.066Z,932.35
2019-01-26T09:36:18.037Z,932.27
2019-01-26T09:37:18.489Z,932.28
2019-01-26T09:38:19.179Z,932.37
2019-01-26T09:39:19.886Z,932.37
2019-01-26T09:40:20.850Z,932.39
2019-01-26T09:41:21.254Z,932.37
2019-01-26T09:42:22.387Z,932.34
2019-01-26T09:43:24.313Z,932.39
2019-01-26T09:43:35.337Z,932.42
2019-01-26T09:43:47.693Z,932.41
2019-01-26T09:43:59.544Z,932.43
2019-01-26T09:44:11.846Z,932.4
2019-01-26T09:44:24.210Z,932.4
2019-01-26T09:44:36.831Z,932.41
2019-01-26T09:44:49.079Z,932.39
2019-01-26T09:45:01.577Z,932.36
2019-01-26T09:46:01.340Z,932.36
2019-01-26T09:47:01.758Z,932.38
2019-01-26T09:48:02.171Z,932.34
2019-01-26T09:49:02.593Z,932.4
2019-01-26T09:50:03.726Z,932.35
2019-01-26T09:51:04.972Z,932.34
2019-01-26T09:52:05.663Z,932.38
2019-01-26T09:53:06.645Z,932.4
2019-01-26T09:54:06.903Z,932.42
2019-01-26T09:55:07.589Z,932.42
2019-01-26T09:56:09.762Z,932.42
2019-01-26T09:56:20.336Z,932.38
2019-01-26T09:57:20.492Z,932.38
2019-01-26T09:58:21.177Z,932.43
2019-01-26T09:59:21.605Z,932.41
2019-01-26T10:00:22.019Z,932.44
2019-01-26T10:01:23.269Z,932.43
2019-01-26T10:02:24.519Z,932.45
2019-01-26T10:03:24.934Z,932.38
2019-01-26T10:04:25.632Z,932.49
2019-01-26T10:05:27.626Z,932.43
2019-01-26T10:06:26.972Z,932.49
2019-01-26T10:07:27.274Z,932.52
2019-01-26T10:08:28.411Z,932.51
2019-01-26T10:09:29.546Z,932.54
2019-01-26T10:10:29.956Z,932.51
2019-01-26T10:11:30.924Z,932.57
2019-01-26T10:12:31.614Z,932.56
2019-01-26T10:13:32.027Z,932.57
2019-01-26T10:14:32.715Z,932.57
2019-01-26T10:15:33.152Z,932.55
2019-01-26T10:16:33.581Z,932.59
2019-01-26T10:17:34.153Z,932.55
2019-01-26T10:18:35.320Z,932.5
2019-01-26T10:19:36.009Z,932.54
2019-01-26T10:20:36.979Z,932.49
2019-01-26T10:21:37.947Z,932.51
2019-01-26T10:22:39.081Z,932.51
2019-01-26T10:23:39.499Z,932.56
2019-01-26T10:24:39.942Z,932.54
2019-01-26T10:25:48.329Z,932.53
2019-01-26T10:25:53.143Z,932.52
2019-01-26T10:26:53.404Z,932.5
2019-01-26T10:27:53.818Z,932.5
2019-01-26T10:28:54.529Z,932.44
2019-01-26T10:29:56.520Z,932.48
2019-01-26T10:30:57.345Z,932.53
2019-01-26T10:31:58.364Z,932.55
2019-01-26T10:32:59.054Z,932.58
2019-01-26T10:33:59.466Z,932.56
2019-01-26T10:35:00.603Z,932.54
2019-01-26T10:36:01.293Z,932.49
2019-01-26T10:37:01.992Z,932.5
2019-01-26T10:38:02.433Z,932.55
2019-01-26T10:39:02.850Z,932.49
2019-01-26T10:40:03.992Z,932.48
2019-01-26T10:41:04.962Z,932.5
2019-01-26T10:42:05.928Z,932.46
2019-01-26T10:43:06.615Z,932.47
2019-01-26T10:44:07.305Z,932.43
2019-01-26T10:45:07.994Z,932.39
2019-01-26T10:46:08.245Z,932.38
2019-01-26T10:47:09.371Z,932.35
2019-01-26T10:48:10.070Z,932.4
2019-01-26T10:49:11.490Z,932.42
2019-01-26T10:50:11.900Z,932.39
2019-01-26T10:51:12.602Z,932.42
2019-01-26T10:52:13.594Z,932.36
2019-01-26T10:53:13.844Z,932.44
2019-01-26T10:54:14.811Z,932.41
2019-01-26T10:55:15.232Z,932.38
2019-01-26T10:56:16.483Z,932.37
2019-01-26T10:57:17.026Z,932.34
2019-01-26T10:58:17.462Z,932.42
2019-01-26T10:59:18.624Z,932.37
2019-01-26T11:00:19.593Z,932.33
2019-01-26T11:01:21.006Z,932.32
2019-01-26T11:02:21.419Z,932.28
2019-01-26T11:03:22.112Z,932.33
2019-01-26T11:04:23.250Z,932.29
2019-01-26T11:05:24.389Z,932.3
2019-01-26T11:06:24.805Z,932.33
2019-01-26T11:07:25.355Z,932.27
2019-01-26T11:08:25.828Z,932.23
2019-01-26T11:09:26.521Z,932.18
2019-01-26T11:10:26.760Z,932.17
2019-01-26T11:11:27.171Z,932.19
2019-01-26T11:12:27.591Z,932.24
2019-01-26T11:13:28.574Z,932.15
2019-01-26T11:14:28.990Z,932.13
2019-01-26T11:15:29.958Z,932.14
2019-01-26T11:16:30.931Z,932.13
2019-01-26T11:17:31.756Z,932.11
2019-01-26T11:18:32.731Z,932.2
2019-01-26T11:19:33.176Z,932.2
2019-01-26T11:20:33.864Z,932.13
2019-01-26T11:21:34.559Z,932.13
2019-01-26T11:22:34.973Z,932.14
2019-01-26T11:23:35.665Z,932.14
2019-01-26T11:24:36.799Z,932.09
2019-01-26T11:25:37.940Z,932.11
2019-01-26T11:26:38.631Z,932.1
2019-01-26T11:27:39.483Z,932.07
2019-01-26T11:28:40.172Z,932.08
2019-01-26T11:29:41.309Z,932.07
2019-01-26T11:30:42.012Z,932.03
2019-01-26T11:31:42.423Z,932.05
2019-01-26T11:32:43.673Z,932.11
2019-01-26T11:33:45.577Z,932.08
2019-01-26T11:34:45.823Z,932.05
2019-01-26T11:35:46.802Z,931.99
2019-01-26T11:36:47.772Z,932.03
2019-01-26T11:37:48.034Z,931.96
2019-01-26T11:38:48.481Z,931.91
2019-01-26T11:39:48.734Z,931.95
2019-01-26T11:40:49.703Z,931.93
2019-01-26T11:41:50.120Z,931.88
2019-01-26T11:42:50.813Z,931.89
2019-01-26T11:43:51.230Z,931.89
2019-01-26T11:44:52.202Z,931.89
2019-01-26T11:45:52.941Z,931.88
2019-01-26T11:46:54.194Z,931.92
2019-01-26T11:47:55.018Z,931.81
2019-01-26T11:48:55.719Z,931.75
2019-01-26T11:49:56.685Z,931.81
2019-01-26T11:50:57.822Z,931.7
2019-01-26T11:51:58.961Z,931.65
2019-01-26T11:52:59.933Z,931.69
2019-01-26T11:54:00.625Z,931.63
2019-01-26T11:55:01.597Z,931.54
2019-01-26T11:56:02.123Z,931.56
2019-01-26T11:57:02.555Z,931.51
2019-01-26T11:58:03.123Z,931.55
2019-01-26T11:59:03.540Z,931.42
2019-01-26T12:00:03.990Z,931.48
2019-01-26T12:01:04.405Z,931.49
2019-01-26T12:02:04.822Z,931.43
2019-01-26T12:03:05.515Z,931.46
2019-01-26T12:04:06.649Z,931.43
2019-01-26T12:05:07.063Z,931.3
2019-01-26T12:06:07.753Z,931.3
2019-01-26T12:07:08.170Z,931.36
2019-01-26T12:08:08.555Z,931.35
2019-01-26T12:09:09.252Z,931.38
2019-01-26T12:10:09.948Z,931.35
2019-01-26T12:11:12.881Z,931.33
2019-01-26T12:12:12.566Z,931.35
2019-01-26T12:13:13.544Z,931.38
2019-01-26T12:14:14.707Z,931.38
2019-01-26T12:15:15.126Z,931.4
2019-01-26T12:16:15.821Z,931.37
2019-01-26T12:17:16.511Z,931.33
2019-01-26T12:18:17.055Z,931.29
2019-01-26T12:19:22.972Z,931.28
2019-01-26T12:19:29.797Z,931.28
2019-01-26T12:20:30.202Z,931.21
2019-01-26T12:21:30.953Z,931.11
2019-01-26T12:22:31.650Z,931.17
2019-01-26T12:23:33.919Z,931.23
2019-01-26T12:24:36.635Z,931.21
2019-01-26T12:25:37.143Z,931.14
2019-01-26T12:26:37.880Z,931.16
2019-01-26T12:27:38.575Z,931.11
2019-01-26T12:28:39.267Z,931.05
2019-01-26T12:29:40.401Z,931.09
2019-01-26T12:30:41.523Z,931.12